Vertrees, Kentucky
Current Conditions -  °F | °C
As of 11:12 AM on Sunday 23 Nov 2014 (Local Time) from KFTK Reporting Station
Overcast Overcast  
Wind Chill: 57°   Ceiling: 3600
Heat Index: 57°   Visibility: 10mi
Dew Point: 48°   Wind: 13mph
Humidity: 72%   Direction: 110°ESE
Pressure: 29.8"   Gusts: NA
Location:  37.6694°N, 86.0627°W
Report Text: KFTK 231612Z AUTO 11011KT 10SM OVC036 14/09 A2980 RMK AO2 PRESFR
Loading
Personal Weather Stations






























Interactive Weather Map New forecast layout! Learn more

10-Day Weather Forecast

Advertisements
Track Severe Weather on mobile